Adams Corners, New York
Current Conditions -  °F | °C
As of 7:45 AM on Wednesday 22 Oct 2014 (Local Time) from KSWF Reporting Station
Overcast Overcast  
Wind Chill: 10°   Ceiling: 600
Heat Index: 10°   Visibility: 10mi
Dew Point: 10°   Wind: 12mph
Humidity: 100%   Direction: 30°NNE
Pressure: 29.99"   Gusts: NA
Location:  41.3969°N, 73.8382°W
Report Text: KSWF 221145Z 03010KT 10SM OVC006 10/10 A2999
Loading
Personal Weather Stations






























Interactive Weather Map
Tropical Storm Tracking
New forecast layout! Learn more

10-Day Weather Forecast

Advertisements
Track Severe Weather on mobile